Akron, Indiana
Current Conditions -  °F | °C
As of 12:35 AM on Thursday 27 Nov 2014 (Local Time) from KRCR Reporting Station
Overcast Overcast  
Wind Chill: -1°   Ceiling: 3000
Heat Index: -1°   Visibility: 10mi
Dew Point: -5°   Wind: 3mph
Humidity: 75%   Direction: 350°N
Pressure: 30.15"   Gusts: NA
Location:  41.04°N, 86.03°W
Report Text: KRCR 270535Z AUTO 35003KT 10SM OVC030 M01/M05 A3015 RMK AO2
Loading
Personal Weather Stations






























Interactive Weather Map New forecast layout! Learn more

10-Day Weather Forecast

Advertisements
Track Severe Weather on mobile